Bretagne — FNBR — position and weather

sailwx.info

Track history (hours):
 
Tides and Currents Weather Stations Pressure Air Temp Water Temp Dewpoint Dewpoint Depression Visibility Wind Speed Wind Dir Waves Ship Positions

Bretagne

Operator: Brittany Ferries

Last reported at 2017-Nov-18 19:27 UTC. Time now 2017-Nov-18 19:45 UTC.
Position N 50°49' W 001°06'.

Length 151 m; beam 27 m.

MMSI: 227286000.

Date/timePositionNaut miles runAvg speedWind from/ knotsBaromVisibWave heightAir tempDewpointWater temp
2017-Nov-18 19:27N 50°49' W 001°06'0 0.0
2017-Nov-18 18:56N 50°49' W 001°06'0 0.0
2017-Nov-18 18:27N 50°49' W 001°06'0 0.0
2017-Nov-18 17:57N 50°49' W 001°06'0 0.0
2017-Nov-18 17:27N 50°49' W 001°06'0 0.0
2017-Nov-18 16:57N 50°49' W 001°06'0 0.0
2017-Nov-18 16:27N 50°49' W 001°06'0 0.0
2017-Nov-18 15:57N 50°49' W 001°06'0 0.0
2017-Nov-18 15:27N 50°49' W 001°06'0 0.0
2017-Nov-18 14:57N 50°49' W 001°06'0 0.0
2017-Nov-18 14:30N 50°49' W 001°06'0 0.0
2017-Nov-18 14:01N 50°49' W 001°06'0 0.0
2017-Nov-18 13:27N 50°49' W 001°06'0 0.0
2017-Nov-18 12:58N 50°49' W 001°06'0 0.0
2017-Nov-18 12:30N 50°49' W 001°06'0 0.0
2017-Nov-18 12:01N 50°49' W 001°06'0 0.0
2017-Nov-18 11:30N 50°49' W 001°06'0 0.0
2017-Nov-18 11:00N 50°49' W 001°06'0 0.0
2017-Nov-18 10:28N 50°49' W 001°06'0 0.0
2017-Nov-18 10:00N 50°49' W 001°06'0 0.0
2017-Nov-18 09:28N 50°49' W 001°06'0 0.0
2017-Nov-18 09:00N 50°49' W 001°06'0 0.0
2017-Nov-18 08:30N 50°49' W 001°06'0 0.0
2017-Nov-18 08:01N 50°49' W 001°06'0 0.5
2017-Nov-18 07:31N 50°49' W 001°06'510.0
2017-Nov-18 07:00N 50°44' W 001°04'816.9
2017-Nov-18 06:31N 50°36' W 001°08'1519.3
2017-Nov-18 05:44N 50°24' W 001°23'416.5
2017-Nov-18 05:30N 50°21' W 001°26'816.3
2017-Nov-18 05:01N 50°15' W 001°34'815.0
2017-Nov-18 04:30N 50°08' W 001°40'612.3
2017-Nov-18 04:00N 50°03' W 001°46'611.6
2017-Nov-18 03:31N 49°59' W 001°51'510.9
2017-Nov-18 03:00N 49°54' W 001°55'510.4
2017-Nov-18 02:30N 49°49' W 001°59'12 7.8
2017-Nov-18 01:00N 49°39' W 002°06'6 9.1
2017-Nov-18 00:21N 49°33' W 002°10'3911.5
2017-Nov-17 20:56N 48°55' W 002°21'1813.3
2017-Nov-17 19:35N 48°40' W 002°05'112.4
2017-Nov-17 19:30N 48°39' W 002°04'28 1.9
2017-Nov-17 04:50N 49°04' W 002°23'612.6
2017-Nov-17 04:22N 49°10' W 002°22'512.5
2017-Nov-17 04:00N 49°15' W 002°21'612.1
2017-Nov-17 03:30N 49°21' W 002°21'510.8
2017-Nov-17 03:01N 49°25' W 002°16'612.2
2017-Nov-17 02:31N 49°30' W 002°12'713.3
2017-Nov-17 02:01N 49°36' W 002°08'1015.2
2017-Nov-17 01:20N 49°46' W 002°01'514.8
2017-Nov-17 01:01N 49°50' W 001°57'714.6
2017-Nov-17 00:30N 49°55' W 001°49'815.1
2017-Nov-17 00:00N 50°01' W 001°43'917.8
2017-Nov-16 23:30N 50°10' W 001°37'2217.2
2017-Nov-16 22:15N 50°29' W 001°22'616.2
2017-Nov-16 21:54N 50°32' W 001°14'616.3
2017-Nov-16 21:31N 50°36' W 001°08'714.1
2017-Nov-16 21:00N 50°43' W 001°03'611.6
2017-Nov-16 20:30N 50°48' W 001°07'1 1.9
2017-Nov-16 19:58N 50°49' W 001°06'0 0.0
2017-Nov-16 19:28N 50°49' W 001°06'0 0.0
2017-Nov-16 18:58N 50°49' W 001°06'0 0.0
2017-Nov-16 18:30N 50°49' W 001°06'0 0.7
2017-Nov-16 18:00N 50°49' W 001°06'510.5
2017-Nov-16 17:30N 50°44' W 001°04'714.7
2017-Nov-16 17:00N 50°37' W 001°07'816.2
2017-Nov-16 16:30N 50°30' W 001°13'1115.6
2017-Nov-16 15:48N 50°20' W 001°23'516.9
2017-Nov-16 15:31N 50°16' W 001°27'816.3
2017-Nov-16 15:00N 50°09' W 001°34'918.0
2017-Nov-16 14:30N 50°02' W 001°42'918.0
2017-Nov-16 14:01N 49°55' W 001°50'917.7
2017-Nov-16 13:31N 49°47' W 001°58'915.7
2017-Nov-16 12:57N 49°39' W 002°00'715.9
2017-Nov-16 12:30N 49°33' W 002°06'917.5
2017-Nov-16 12:00N 49°26' W 002°14'917.2
2017-Nov-16 11:30N 49°18' W 002°20'917.9
2017-Nov-16 11:00N 49°09' W 002°21'1019.4
2017-Nov-16 10:29N 48°59' W 002°21'1019.7
2017-Nov-16 10:00N 48°50' W 002°16'1020.4
2017-Nov-16 09:30N 48°42' W 002°06'5 8.7
2017-Nov-16 08:57N 48°38' W 002°02'0 0.0
2017-Nov-16 08:27N 48°38' W 002°02'0 0.0
2017-Nov-16 07:54N 48°38' W 002°02'0 0.0
2017-Nov-16 07:22N 48°38' W 002°02'0 0.1
2017-Nov-16 06:48N 48°38' W 002°02'2 8.2
2017-Nov-16 06:30N 48°40' W 002°05'917.2
2017-Nov-16 05:58N 48°48' W 002°12'715.7
2017-Nov-16 05:30N 48°53' W 002°19'713.5
2017-Nov-16 05:00N 48°60' W 002°23'612.3
2017-Nov-16 04:30N 49°06' W 002°23'612.2
2017-Nov-16 03:59N 49°12' W 002°22'612.0
2017-Nov-16 03:30N 49°18' W 002°21'611.5
2017-Nov-16 03:00N 49°23' W 002°17'611.9
2017-Nov-16 02:30N 49°28' W 002°13'612.4
2017-Nov-16 02:00N 49°34' W 002°09'813.4
2017-Nov-16 01:27N 49°41' W 002°04'614.1
2017-Nov-16 01:00N 49°47' W 002°03'613.0
2017-Nov-16 00:30N 49°53' W 001°59'713.5
2017-Nov-16 00:00N 49°59' W 001°55'918.3
2017-Nov-15 23:30N 50°06' W 001°46'917.9
2017-Nov-15 23:00N 50°13' W 001°37'1117.3
2017-Nov-15 22:24N 50°21' W 001°26'817.3
2017-Nov-15 21:55N 50°27' W 001°18'717.2
2017-Nov-15 21:30N 50°33' W 001°11'816.7
2017-Nov-15 21:01N 50°40' W 001°04'612.7
2017-Nov-15 20:31N 50°46' W 001°06'2 4.5
2017-Nov-15 19:58N 50°49' W 001°06'0 0.0
2017-Nov-15 19:28N 50°49' W 001°06'0 0.0
2017-Nov-15 18:58N 50°49' W 001°06'0 0.0
2017-Nov-15 18:28N 50°49' W 001°06'0 0.0
2017-Nov-15 17:59N 50°49' W 001°06'0 0.0
2017-Nov-15 17:28N 50°49' W 001°06'0 0.0
2017-Nov-15 16:58N 50°49' W 001°06'0 0.0
2017-Nov-15 16:28N 50°49' W 001°06'0 0.0
2017-Nov-15 15:58N 50°49' W 001°06'0 0.0
2017-Nov-15 15:28N 50°49' W 001°06'0 0.0
2017-Nov-15 14:58N 50°49' W 001°06'0 0.0
2017-Nov-15 14:29N 50°49' W 001°06'0 0.0
2017-Nov-15 14:00N 50°49' W 001°06'0 0.0
2017-Nov-15 13:30N 50°49' W 001°06'0 0.0
2017-Nov-15 13:00N 50°49' W 001°06'0 0.0
2017-Nov-15 12:30N 50°49' W 001°06'0 0.0
2017-Nov-15 11:59N 50°49' W 001°06'0 0.0
2017-Nov-15 11:29N 50°49' W 001°06'0 0.0
2017-Nov-15 10:59N 50°49' W 001°06'0 0.0
2017-Nov-15 10:29N 50°49' W 001°06'0 0.0
2017-Nov-15 09:59N 50°49' W 001°06'0 0.0
2017-Nov-15 09:29N 50°49' W 001°06'0 0.0
2017-Nov-15 09:00N 50°49' W 001°06'0 0.0
2017-Nov-15 08:30N 50°49' W 001°06'0 0.0
2017-Nov-15 08:00N 50°49' W 001°06'1 1.2
2017-Nov-15 07:30N 50°49' W 001°07'510.5
2017-Nov-15 07:01N 50°44' W 001°03'714.4
2017-Nov-15 06:31N 50°37' W 001°07'1014.6
2017-Nov-15 05:51N 50°29' W 001°17'513.5
2017-Nov-15 05:30N 50°26' W 001°21'713.4
2017-Nov-15 05:00N 50°20' W 001°27'713.6
2017-Nov-15 04:30N 50°15' W 001°34'713.2
2017-Nov-15 04:00N 50°10' W 001°40'713.1
2017-Nov-15 03:30N 50°04' W 001°46'714.9
2017-Nov-15 03:00N 49°58' W 001°52'612.3
2017-Nov-15 02:30N 49°52' W 001°56'611.2
2017-Nov-15 02:00N 49°47' W 001°60'710.3
2017-Nov-15 01:18N 49°41' W 002°04'3 9.4
2017-Nov-15 01:01N 49°38' W 002°07'5 9.2
2017-Nov-15 00:30N 49°34' W 002°09'510.2
2017-Nov-15 00:00N 49°29' W 002°12'510.4
2017-Nov-14 23:31N 49°25' W 002°15'510.3
2017-Nov-14 23:00N 49°20' W 002°18'510.3
2017-Nov-14 22:31N 49°15' W 002°22'1111.6
2017-Nov-14 21:36N 49°05' W 002°23'212.4
2017-Nov-14 21:28N 49°03' W 002°23'812.8
2017-Nov-14 20:50N 48°55' W 002°21'713.1
2017-Nov-14 20:20N 48°50' W 002°15'613.0
2017-Nov-14 19:50N 48°45' W 002°09'412.5
2017-Nov-14 19:30N 48°41' W 002°06'4 1.5
2017-Nov-14 16:49N 48°38' W 002°02'7 0.7
2017-Nov-14 06:25N 48°44' W 002°08'511.0
2017-Nov-14 05:58N 48°48' W 002°12'511.0
2017-Nov-14 05:29N 48°52' W 002°18'1711.0
2017-Nov-14 03:58N 49°09' W 002°23'511.0
2017-Nov-14 03:31N 49°14' W 002°22'714.1
2017-Nov-14 03:00N 49°20' W 002°19'714.4
2017-Nov-14 02:31N 49°27' W 002°14'714.9
2017-Nov-14 02:01N 49°34' W 002°09'6216.3
2017-Nov-13 22:13N 50°26' W 001°18'417.2
2017-Nov-13 22:00N 50°29' W 001°15'65 3.2
2017-Nov-13 02:00N 49°34' W 002°08'6415.1
2017-Nov-12 21:45N 50°29' W 001°16'417.3
2017-Nov-12 21:31N 50°32' W 001°12'917.3
2017-Nov-12 21:01N 50°40' W 001°04'612.3
2017-Nov-12 20:30N 50°46' W 001°05'3 5.9
2017-Nov-12 19:59N 50°49' W 001°06'0 0.0
2017-Nov-12 19:30N 50°49' W 001°06'0 0.0
2017-Nov-12 19:00N 50°49' W 001°06'0 0.0
2017-Nov-12 18:30N 50°49' W 001°06'0 0.4
2017-Nov-12 18:00N 50°49' W 001°06'5 9.7
2017-Nov-12 17:30N 50°44' W 001°04'611.8
2017-Nov-12 17:00N 50°38' W 001°06'714.2
2017-Nov-12 16:30N 50°32' W 001°12'714.9
2017-Nov-12 16:00N 50°26' W 001°17'816.3
2017-Nov-12 15:30N 50°18' W 001°22'815.9
2017-Nov-12 15:01N 50°11' W 001°29'816.8
2017-Nov-12 14:30N 50°05' W 001°37'918.7
2017-Nov-12 14:00N 49°57' W 001°46'1019.2
2017-Nov-12 13:30N 49°50' W 001°56'1119.5
2017-Nov-12 12:57N 49°40' W 002°01'920.0
2017-Nov-12 12:29N 49°31' W 001°59'24 2.9
2017-Nov-12 04:16N 49°14' W 002°25'414.6
2017-Nov-12 04:00N 49°18' W 002°26'510.5
2017-Nov-12 03:30N 49°23' W 002°22'612.5
2017-Nov-12 03:00N 49°26' W 002°14'713.4
2017-Nov-12 02:30N 49°32' W 002°09'713.7
2017-Nov-12 02:00N 49°39' W 002°06'711.5
2017-Nov-12 01:26N 49°45' W 002°02'511.3
2017-Nov-12 01:01N 49°48' W 001°56'612.4
2017-Nov-12 00:31N 49°53' W 001°51'713.5
2017-Nov-12 00:00N 49°59' W 001°47'713.9
2017-Nov-11 23:30N 50°05' W 001°41'815.5
2017-Nov-11 23:00N 50°11' W 001°34'816.3
2017-Nov-11 22:30N 50°18' W 001°27'1116.7
2017-Nov-11 21:51N 50°27' W 001°18'617.3
2017-Nov-11 21:30N 50°32' W 001°12'917.2
2017-Nov-11 21:00N 50°39' W 001°05'612.6
2017-Nov-11 20:31N 50°46' W 001°05'3 6.3
2017-Nov-11 20:01N 50°49' W 001°06'0 0.0
2017-Nov-11 19:29N 50°49' W 001°06'0 0.0
2017-Nov-11 18:59N 50°49' W 001°06'0 0.0
2017-Nov-11 18:29N 50°49' W 001°06'0 0.0
2017-Nov-11 17:59N 50°49' W 001°06'0 0.0
2017-Nov-11 17:29N 50°49' W 001°06'0 0.0
2017-Nov-11 16:59N 50°49' W 001°06'0 0.0
2017-Nov-11 16:29N 50°49' W 001°06'0 0.0
2017-Nov-11 16:00N 50°49' W 001°06'0 0.0
2017-Nov-11 15:30N 50°49' W 001°06'0 0.0
2017-Nov-11 15:00N 50°49' W 001°06'0 0.0
2017-Nov-11 14:30N 50°49' W 001°06'0 0.0
2017-Nov-11 14:00N 50°49' W 001°06'0 0.0
2017-Nov-11 13:30N 50°49' W 001°06'0 0.0
2017-Nov-11 13:00N 50°49' W 001°06'0 0.0
2017-Nov-11 12:30N 50°49' W 001°06'0 0.0
2017-Nov-11 12:00N 50°49' W 001°06'0 0.0
2017-Nov-11 11:30N 50°49' W 001°06'0 0.0
2017-Nov-11 11:00N 50°49' W 001°06'0 0.0
2017-Nov-11 10:30N 50°49' W 001°06'0 0.0
2017-Nov-11 10:00N 50°49' W 001°06'0 0.0
2017-Nov-11 09:30N 50°49' W 001°06'0 0.0
2017-Nov-11 09:00N 50°49' W 001°06'0 0.0
2017-Nov-11 08:30N 50°49' W 001°06'0 0.0
2017-Nov-11 08:00N 50°49' W 001°06'0 0.4
2017-Nov-11 07:30N 50°49' W 001°06'5 9.4
2017-Nov-11 07:01N 50°44' W 001°04'713.8
2017-Nov-11 06:31N 50°37' W 001°07'713.2
2017-Nov-11 06:00N 50°32' W 001°13'913.7
2017-Nov-11 05:22N 50°25' W 001°21'514.4
2017-Nov-11 05:00N 50°21' W 001°26'713.9
2017-Nov-11 04:30N 50°15' W 001°31'714.2
2017-Nov-11 04:00N 50°09' W 001°37'714.5
2017-Nov-11 03:30N 50°02' W 001°42'612.1
2017-Nov-11 03:00N 49°57' W 001°48'612.0
2017-Nov-11 02:30N 49°53' W 001°53'713.4
2017-Nov-11 02:00N 49°47' W 001°59'814.2
2017-Nov-11 01:25N 49°40' W 002°05'513.3
2017-Nov-11 01:00N 49°34' W 002°08'713.3
2017-Nov-11 00:30N 49°29' W 002°13'815.1
2017-Nov-11 00:00N 49°22' W 002°19'3 0.1
2017-Nov-10 03:51N 49°20' W 002°19'816.4
2017-Nov-10 03:23N 49°26' W 002°14'616.2
2017-Nov-10 03:00N 49°32' W 002°11'1515.6
2017-Nov-10 02:03N 49°46' W 002°02'113.7
2017-Nov-10 02:00N 49°47' W 002°02'714.1
2017-Nov-10 01:31N 49°52' W 001°55'714.1
2017-Nov-10 01:00N 49°58' W 001°49'713.7
2017-Nov-10 00:30N 50°03' W 001°42'713.8
2017-Nov-10 00:00N 50°09' W 001°35'914.0
2017-Nov-09 23:24N 50°15' W 001°27'713.8
2017-Nov-09 22:53N 50°21' W 001°21'614.1
2017-Nov-09 22:29N 50°26' W 001°15'714.1
2017-Nov-09 22:01N 50°31' W 001°09'714.2
2017-Nov-09 21:31N 50°36' W 001°02'713.0
2017-Nov-09 21:01N 50°43' W 001°00'612.8
2017-Nov-09 20:31N 50°48' W 001°07'1 2.3
2017-Nov-09 19:59N 50°49' W 001°06'0 0.0
2017-Nov-09 19:29N 50°49' W 001°06'0 0.0
2017-Nov-09 18:59N 50°49' W 001°06'0 0.0
2017-Nov-09 18:29N 50°49' W 001°06'0 0.9
2017-Nov-09 18:01N 50°49' W 001°06'511.0
2017-Nov-09 17:30N 50°43' W 001°04'714.8
2017-Nov-09 17:01N 50°36' W 001°07'612.8
2017-Nov-09 16:30N 50°31' W 001°13'1114.5
2017-Nov-09 15:46N 50°22' W 001°22'414.3
2017-Nov-09 15:30N 50°19' W 001°26'715.0
2017-Nov-09 15:01N 50°13' W 001°31'815.5
2017-Nov-09 14:31N 50°06' W 001°36'815.9
2017-Nov-09 14:01N 49°59' W 001°44'816.7
2017-Nov-09 13:30N 49°53' W 001°52'1019.6
2017-Nov-09 13:00N 49°45' W 002°01'1020.9
2017-Nov-09 12:30N 49°34' W 002°00'5610.1
2017-Nov-09 06:58N 48°38' W 002°02'714.3
2017-Nov-09 06:30N 48°44' W 002°08'815.5
2017-Nov-09 05:59N 48°50' W 002°15'2113.7
2017-Nov-09 04:28N 49°11' W 002°22'614.3
2017-Nov-09 04:00N 49°17' W 002°21'714.1
2017-Nov-09 03:30N 49°24' W 002°17'713.8
2017-Nov-09 03:00N 49°30' W 002°13'816.9
2017-Nov-09 02:30N 49°38' W 002°08'1017.5
2017-Nov-09 01:57N 49°46' W 002°00'715.1
2017-Nov-09 01:30N 49°51' W 001°54'714.6
2017-Nov-09 01:00N 49°57' W 001°48'714.3
2017-Nov-09 00:31N 50°03' W 001°42'713.6
2017-Nov-09 00:00N 50°09' W 001°35'713.9
2017-Nov-08 23:29N 50°15' W 001°29'714.1
2017-Nov-08 22:57N 50°21' W 001°22'614.0
2017-Nov-08 22:30N 50°26' W 001°15'713.7
2017-Nov-08 22:01N 50°31' W 001°09'713.2
2017-Nov-08 21:31N 50°36' W 001°02'613.0
2017-Nov-08 21:01N 50°42' W 000°59'713.1
2017-Nov-08 20:31N 50°47' W 001°06'2 3.5
2017-Nov-08 20:00N 50°49' W 001°06'0 0.0
2017-Nov-08 19:30N 50°49' W 001°06'  
Track history (hours):
 
Tides and Currents Weather Stations Pressure Air Temp Water Temp Dewpoint Dewpoint Depression Visibility Wind Speed Wind Dir Waves Ship Positions

Bretagne

Operator: Brittany Ferries

Last reported at 2017-Nov-18 19:27 UTC. Time now 2017-Nov-18 19:45 UTC.
Position N 50°49' W 001°06'.

Length 151 m; beam 27 m.

MMSI: 227286000.

Date/timePositionNaut miles runAvg speedWind from/ knotsBaromVisibWave heightAir tempDewpointWater temp
2017-Nov-18 19:27N 50°49' W 001°06'0 0.0
2017-Nov-18 18:56N 50°49' W 001°06'0 0.0
2017-Nov-18 18:27N 50°49' W 001°06'0 0.0
2017-Nov-18 17:57N 50°49' W 001°06'0 0.0
2017-Nov-18 17:27N 50°49' W 001°06'0 0.0
2017-Nov-18 16:57N 50°49' W 001°06'0 0.0
2017-Nov-18 16:27N 50°49' W 001°06'0 0.0
2017-Nov-18 15:57N 50°49' W 001°06'0 0.0
2017-Nov-18 15:27N 50°49' W 001°06'0 0.0
2017-Nov-18 14:57N 50°49' W 001°06'0 0.0
2017-Nov-18 14:30N 50°49' W 001°06'0 0.0
2017-Nov-18 14:01N 50°49' W 001°06'0 0.0
2017-Nov-18 13:27N 50°49' W 001°06'0 0.0
2017-Nov-18 12:58N 50°49' W 001°06'0 0.0
2017-Nov-18 12:30N 50°49' W 001°06'0 0.0
2017-Nov-18 12:01N 50°49' W 001°06'0 0.0
2017-Nov-18 11:30N 50°49' W 001°06'0 0.0
2017-Nov-18 11:00N 50°49' W 001°06'0 0.0
2017-Nov-18 10:28N 50°49' W 001°06'0 0.0
2017-Nov-18 10:00N 50°49' W 001°06'0 0.0
2017-Nov-18 09:28N 50°49' W 001°06'0 0.0
2017-Nov-18 09:00N 50°49' W 001°06'0 0.0
2017-Nov-18 08:30N 50°49' W 001°06'0 0.0
2017-Nov-18 08:01N 50°49' W 001°06'0 0.5
2017-Nov-18 07:31N 50°49' W 001°06'510.0
2017-Nov-18 07:00N 50°44' W 001°04'816.9
2017-Nov-18 06:31N 50°36' W 001°08'1519.3
2017-Nov-18 05:44N 50°24' W 001°23'416.5
2017-Nov-18 05:30N 50°21' W 001°26'816.3
2017-Nov-18 05:01N 50°15' W 001°34'815.0
2017-Nov-18 04:30N 50°08' W 001°40'612.3
2017-Nov-18 04:00N 50°03' W 001°46'611.6
2017-Nov-18 03:31N 49°59' W 001°51'510.9
2017-Nov-18 03:00N 49°54' W 001°55'510.4
2017-Nov-18 02:30N 49°49' W 001°59'12 7.8
2017-Nov-18 01:00N 49°39' W 002°06'6 9.1
2017-Nov-18 00:21N 49°33' W 002°10'3911.5
2017-Nov-17 20:56N 48°55' W 002°21'1813.3
2017-Nov-17 19:35N 48°40' W 002°05'112.4
2017-Nov-17 19:30N 48°39' W 002°04'28 1.9
2017-Nov-17 04:50N 49°04' W 002°23'612.6
2017-Nov-17 04:22N 49°10' W 002°22'512.5
2017-Nov-17 04:00N 49°15' W 002°21'612.1
2017-Nov-17 03:30N 49°21' W 002°21'510.8
2017-Nov-17 03:01N 49°25' W 002°16'612.2
2017-Nov-17 02:31N 49°30' W 002°12'713.3
2017-Nov-17 02:01N 49°36' W 002°08'1015.2
2017-Nov-17 01:20N 49°46' W 002°01'514.8
2017-Nov-17 01:01N 49°50' W 001°57'714.6
2017-Nov-17 00:30N 49°55' W 001°49'815.1
2017-Nov-17 00:00N 50°01' W 001°43'917.8
2017-Nov-16 23:30N 50°10' W 001°37'2217.2
2017-Nov-16 22:15N 50°29' W 001°22'616.2
2017-Nov-16 21:54N 50°32' W 001°14'616.3
2017-Nov-16 21:31N 50°36' W 001°08'714.1
2017-Nov-16 21:00N 50°43' W 001°03'611.6
2017-Nov-16 20:30N 50°48' W 001°07'1 1.9
2017-Nov-16 19:58N 50°49' W 001°06'0 0.0
2017-Nov-16 19:28N 50°49' W 001°06'0 0.0
2017-Nov-16 18:58N 50°49' W 001°06'0 0.0
2017-Nov-16 18:30N 50°49' W 001°06'0 0.7
2017-Nov-16 18:00N 50°49' W 001°06'510.5
2017-Nov-16 17:30N 50°44' W 001°04'714.7
2017-Nov-16 17:00N 50°37' W 001°07'816.2
2017-Nov-16 16:30N 50°30' W 001°13'1115.6
2017-Nov-16 15:48N 50°20' W 001°23'516.9
2017-Nov-16 15:31N 50°16' W 001°27'816.3
2017-Nov-16 15:00N 50°09' W 001°34'918.0
2017-Nov-16 14:30N 50°02' W 001°42'918.0
2017-Nov-16 14:01N 49°55' W 001°50'917.7
2017-Nov-16 13:31N 49°47' W 001°58'915.7
2017-Nov-16 12:57N 49°39' W 002°00'715.9
2017-Nov-16 12:30N 49°33' W 002°06'917.5
2017-Nov-16 12:00N 49°26' W 002°14'917.2
2017-Nov-16 11:30N 49°18' W 002°20'917.9
2017-Nov-16 11:00N 49°09' W 002°21'1019.4
2017-Nov-16 10:29N 48°59' W 002°21'1019.7
2017-Nov-16 10:00N 48°50' W 002°16'1020.4
2017-Nov-16 09:30N 48°42' W 002°06'5 8.7
2017-Nov-16 08:57N 48°38' W 002°02'0 0.0
2017-Nov-16 08:27N 48°38' W 002°02'0 0.0
2017-Nov-16 07:54N 48°38' W 002°02'0 0.0
2017-Nov-16 07:22N 48°38' W 002°02'0 0.1
2017-Nov-16 06:48N 48°38' W 002°02'2 8.2
2017-Nov-16 06:30N 48°40' W 002°05'917.2
2017-Nov-16 05:58N 48°48' W 002°12'715.7
2017-Nov-16 05:30N 48°53' W 002°19'713.5
2017-Nov-16 05:00N 48°60' W 002°23'612.3
2017-Nov-16 04:30N 49°06' W 002°23'612.2
2017-Nov-16 03:59N 49°12' W 002°22'612.0
2017-Nov-16 03:30N 49°18' W 002°21'611.5
2017-Nov-16 03:00N 49°23' W 002°17'611.9
2017-Nov-16 02:30N 49°28' W 002°13'612.4
2017-Nov-16 02:00N 49°34' W 002°09'813.4
2017-Nov-16 01:27N 49°41' W 002°04'614.1
2017-Nov-16 01:00N 49°47' W 002°03'613.0
2017-Nov-16 00:30N 49°53' W 001°59'713.5
2017-Nov-16 00:00N 49°59' W 001°55'918.3
2017-Nov-15 23:30N 50°06' W 001°46'917.9
2017-Nov-15 23:00N 50°13' W 001°37'1117.3
2017-Nov-15 22:24N 50°21' W 001°26'817.3
2017-Nov-15 21:55N 50°27' W 001°18'717.2
2017-Nov-15 21:30N 50°33' W 001°11'816.7
2017-Nov-15 21:01N 50°40' W 001°04'612.7
2017-Nov-15 20:31N 50°46' W 001°06'2 4.5
2017-Nov-15 19:58N 50°49' W 001°06'0 0.0
2017-Nov-15 19:28N 50°49' W 001°06'0 0.0
2017-Nov-15 18:58N 50°49' W 001°06'0 0.0
2017-Nov-15 18:28N 50°49' W 001°06'0 0.0
2017-Nov-15 17:59N 50°49' W 001°06'0 0.0
2017-Nov-15 17:28N 50°49' W 001°06'0 0.0
2017-Nov-15 16:58N 50°49' W 001°06'0 0.0
2017-Nov-15 16:28N 50°49' W 001°06'0 0.0
2017-Nov-15 15:58N 50°49' W 001°06'0 0.0
2017-Nov-15 15:28N 50°49' W 001°06'0 0.0
2017-Nov-15 14:58N 50°49' W 001°06'0 0.0
2017-Nov-15 14:29N 50°49' W 001°06'0 0.0
2017-Nov-15 14:00N 50°49' W 001°06'0 0.0
2017-Nov-15 13:30N 50°49' W 001°06'0 0.0
2017-Nov-15 13:00N 50°49' W 001°06'0 0.0
2017-Nov-15 12:30N 50°49' W 001°06'0 0.0
2017-Nov-15 11:59N 50°49' W 001°06'0 0.0
2017-Nov-15 11:29N 50°49' W 001°06'0 0.0
2017-Nov-15 10:59N 50°49' W 001°06'0 0.0
2017-Nov-15 10:29N 50°49' W 001°06'0 0.0
2017-Nov-15 09:59N 50°49' W 001°06'0 0.0
2017-Nov-15 09:29N 50°49' W 001°06'0 0.0
2017-Nov-15 09:00N 50°49' W 001°06'0 0.0
2017-Nov-15 08:30N 50°49' W 001°06'0 0.0
2017-Nov-15 08:00N 50°49' W 001°06'1 1.2
2017-Nov-15 07:30N 50°49' W 001°07'510.5
2017-Nov-15 07:01N 50°44' W 001°03'714.4
2017-Nov-15 06:31N 50°37' W 001°07'1014.6
2017-Nov-15 05:51N 50°29' W 001°17'513.5
2017-Nov-15 05:30N 50°26' W 001°21'713.4
2017-Nov-15 05:00N 50°20' W 001°27'713.6
2017-Nov-15 04:30N 50°15' W 001°34'713.2
2017-Nov-15 04:00N 50°10' W 001°40'713.1
2017-Nov-15 03:30N 50°04' W 001°46'714.9
2017-Nov-15 03:00N 49°58' W 001°52'612.3
2017-Nov-15 02:30N 49°52' W 001°56'611.2
2017-Nov-15 02:00N 49°47' W 001°60'710.3
2017-Nov-15 01:18N 49°41' W 002°04'3 9.4
2017-Nov-15 01:01N 49°38' W 002°07'5 9.2
2017-Nov-15 00:30N 49°34' W 002°09'510.2
2017-Nov-15 00:00N 49°29' W 002°12'510.4
2017-Nov-14 23:31N 49°25' W 002°15'510.3
2017-Nov-14 23:00N 49°20' W 002°18'510.3
2017-Nov-14 22:31N 49°15' W 002°22'1111.6
2017-Nov-14 21:36N 49°05' W 002°23'212.4
2017-Nov-14 21:28N 49°03' W 002°23'812.8
2017-Nov-14 20:50N 48°55' W 002°21'713.1
2017-Nov-14 20:20N 48°50' W 002°15'613.0
2017-Nov-14 19:50N 48°45' W 002°09'412.5
2017-Nov-14 19:30N 48°41' W 002°06'4 1.5
2017-Nov-14 16:49N 48°38' W 002°02'7 0.7
2017-Nov-14 06:25N 48°44' W 002°08'511.0
2017-Nov-14 05:58N 48°48' W 002°12'511.0
2017-Nov-14 05:29N 48°52' W 002°18'1711.0
2017-Nov-14 03:58N 49°09' W 002°23'511.0
2017-Nov-14 03:31N 49°14' W 002°22'714.1
2017-Nov-14 03:00N 49°20' W 002°19'714.4
2017-Nov-14 02:31N 49°27' W 002°14'714.9
2017-Nov-14 02:01N 49°34' W 002°09'6216.3
2017-Nov-13 22:13N 50°26' W 001°18'417.2
2017-Nov-13 22:00N 50°29' W 001°15'65 3.2
2017-Nov-13 02:00N 49°34' W 002°08'6415.1
2017-Nov-12 21:45N 50°29' W 001°16'417.3
2017-Nov-12 21:31N 50°32' W 001°12'917.3
2017-Nov-12 21:01N 50°40' W 001°04'612.3
2017-Nov-12 20:30N 50°46' W 001°05'3 5.9
2017-Nov-12 19:59N 50°49' W 001°06'0 0.0
2017-Nov-12 19:30N 50°49' W 001°06'0 0.0
2017-Nov-12 19:00N 50°49' W 001°06'0 0.0
2017-Nov-12 18:30N 50°49' W 001°06'0 0.4
2017-Nov-12 18:00N 50°49' W 001°06'5 9.7
2017-Nov-12 17:30N 50°44' W 001°04'611.8
2017-Nov-12 17:00N 50°38' W 001°06'714.2
2017-Nov-12 16:30N 50°32' W 001°12'714.9
2017-Nov-12 16:00N 50°26' W 001°17'816.3
2017-Nov-12 15:30N 50°18' W 001°22'815.9
2017-Nov-12 15:01N 50°11' W 001°29'816.8
2017-Nov-12 14:30N 50°05' W 001°37'918.7
2017-Nov-12 14:00N 49°57' W 001°46'1019.2
2017-Nov-12 13:30N 49°50' W 001°56'1119.5
2017-Nov-12 12:57N 49°40' W 002°01'920.0
2017-Nov-12 12:29N 49°31' W 001°59'24 2.9
2017-Nov-12 04:16N 49°14' W 002°25'414.6
2017-Nov-12 04:00N 49°18' W 002°26'510.5
2017-Nov-12 03:30N 49°23' W 002°22'612.5
2017-Nov-12 03:00N 49°26' W 002°14'713.4
2017-Nov-12 02:30N 49°32' W 002°09'713.7
2017-Nov-12 02:00N 49°39' W 002°06'711.5
2017-Nov-12 01:26N 49°45' W 002°02'511.3
2017-Nov-12 01:01N 49°48' W 001°56'612.4
2017-Nov-12 00:31N 49°53' W 001°51'713.5
2017-Nov-12 00:00N 49°59' W 001°47'713.9
2017-Nov-11 23:30N 50°05' W 001°41'815.5
2017-Nov-11 23:00N 50°11' W 001°34'816.3
2017-Nov-11 22:30N 50°18' W 001°27'1116.7
2017-Nov-11 21:51N 50°27' W 001°18'617.3
2017-Nov-11 21:30N 50°32' W 001°12'917.2
2017-Nov-11 21:00N 50°39' W 001°05'612.6
2017-Nov-11 20:31N 50°46' W 001°05'3 6.3
2017-Nov-11 20:01N 50°49' W 001°06'0 0.0
2017-Nov-11 19:29N 50°49' W 001°06'0 0.0
2017-Nov-11 18:59N 50°49' W 001°06'0 0.0
2017-Nov-11 18:29N 50°49' W 001°06'0 0.0
2017-Nov-11 17:59N 50°49' W 001°06'0 0.0
2017-Nov-11 17:29N 50°49' W 001°06'0 0.0
2017-Nov-11 16:59N 50°49' W 001°06'0 0.0
2017-Nov-11 16:29N 50°49' W 001°06'0 0.0
2017-Nov-11 16:00N 50°49' W 001°06'0 0.0
2017-Nov-11 15:30N 50°49' W 001°06'0 0.0
2017-Nov-11 15:00N 50°49' W 001°06'0 0.0
2017-Nov-11 14:30N 50°49' W 001°06'0 0.0
2017-Nov-11 14:00N 50°49' W 001°06'0 0.0
2017-Nov-11 13:30N 50°49' W 001°06'0 0.0
2017-Nov-11 13:00N 50°49' W 001°06'0 0.0
2017-Nov-11 12:30N 50°49' W 001°06'0 0.0
2017-Nov-11 12:00N 50°49' W 001°06'0 0.0
2017-Nov-11 11:30N 50°49' W 001°06'0 0.0
2017-Nov-11 11:00N 50°49' W 001°06'0 0.0
2017-Nov-11 10:30N 50°49' W 001°06'0 0.0
2017-Nov-11 10:00N 50°49' W 001°06'0 0.0
2017-Nov-11 09:30N 50°49' W 001°06'0 0.0
2017-Nov-11 09:00N 50°49' W 001°06'0 0.0
2017-Nov-11 08:30N 50°49' W 001°06'0 0.0
2017-Nov-11 08:00N 50°49' W 001°06'0 0.4
2017-Nov-11 07:30N 50°49' W 001°06'5 9.4
2017-Nov-11 07:01N 50°44' W 001°04'713.8
2017-Nov-11 06:31N 50°37' W 001°07'713.2
2017-Nov-11 06:00N 50°32' W 001°13'913.7
2017-Nov-11 05:22N 50°25' W 001°21'514.4
2017-Nov-11 05:00N 50°21' W 001°26'713.9
2017-Nov-11 04:30N 50°15' W 001°31'714.2
2017-Nov-11 04:00N 50°09' W 001°37'714.5
2017-Nov-11 03:30N 50°02' W 001°42'612.1
2017-Nov-11 03:00N 49°57' W 001°48'612.0
2017-Nov-11 02:30N 49°53' W 001°53'713.4
2017-Nov-11 02:00N 49°47' W 001°59'814.2
2017-Nov-11 01:25N 49°40' W 002°05'513.3
2017-Nov-11 01:00N 49°34' W 002°08'713.3
2017-Nov-11 00:30N 49°29' W 002°13'815.1
2017-Nov-11 00:00N 49°22' W 002°19'3 0.1
2017-Nov-10 03:51N 49°20' W 002°19'816.4
2017-Nov-10 03:23N 49°26' W 002°14'616.2
2017-Nov-10 03:00N 49°32' W 002°11'1515.6
2017-Nov-10 02:03N 49°46' W 002°02'113.7
2017-Nov-10 02:00N 49°47' W 002°02'714.1
2017-Nov-10 01:31N 49°52' W 001°55'714.1
2017-Nov-10 01:00N 49°58' W 001°49'713.7
2017-Nov-10 00:30N 50°03' W 001°42'713.8
2017-Nov-10 00:00N 50°09' W 001°35'914.0
2017-Nov-09 23:24N 50°15' W 001°27'713.8
2017-Nov-09 22:53N 50°21' W 001°21'614.1
2017-Nov-09 22:29N 50°26' W 001°15'714.1
2017-Nov-09 22:01N 50°31' W 001°09'714.2
2017-Nov-09 21:31N 50°36' W 001°02'713.0
2017-Nov-09 21:01N 50°43' W 001°00'612.8
2017-Nov-09 20:31N 50°48' W 001°07'1 2.3
2017-Nov-09 19:59N 50°49' W 001°06'0 0.0
2017-Nov-09 19:29N 50°49' W 001°06'0 0.0
2017-Nov-09 18:59N 50°49' W 001°06'0 0.0
2017-Nov-09 18:29N 50°49' W 001°06'0 0.9
2017-Nov-09 18:01N 50°49' W 001°06'511.0
2017-Nov-09 17:30N 50°43' W 001°04'714.8
2017-Nov-09 17:01N 50°36' W 001°07'612.8
2017-Nov-09 16:30N 50°31' W 001°13'1114.5
2017-Nov-09 15:46N 50°22' W 001°22'414.3
2017-Nov-09 15:30N 50°19' W 001°26'715.0
2017-Nov-09 15:01N 50°13' W 001°31'815.5
2017-Nov-09 14:31N 50°06' W 001°36'815.9
2017-Nov-09 14:01N 49°59' W 001°44'816.7
2017-Nov-09 13:30N 49°53' W 001°52'1019.6
2017-Nov-09 13:00N 49°45' W 002°01'1020.9
2017-Nov-09 12:30N 49°34' W 002°00'5610.1
2017-Nov-09 06:58N 48°38' W 002°02'714.3
2017-Nov-09 06:30N 48°44' W 002°08'815.5
2017-Nov-09 05:59N 48°50' W 002°15'2113.7
2017-Nov-09 04:28N 49°11' W 002°22'614.3
2017-Nov-09 04:00N 49°17' W 002°21'714.1
2017-Nov-09 03:30N 49°24' W 002°17'713.8
2017-Nov-09 03:00N 49°30' W 002°13'816.9
2017-Nov-09 02:30N 49°38' W 002°08'1017.5
2017-Nov-09 01:57N 49°46' W 002°00'715.1
2017-Nov-09 01:30N 49°51' W 001°54'714.6
2017-Nov-09 01:00N 49°57' W 001°48'714.3
2017-Nov-09 00:31N 50°03' W 001°42'713.6
2017-Nov-09 00:00N 50°09' W 001°35'713.9
2017-Nov-08 23:29N 50°15' W 001°29'714.1
2017-Nov-08 22:57N 50°21' W 001°22'614.0
2017-Nov-08 22:30N 50°26' W 001°15'713.7
2017-Nov-08 22:01N 50°31' W 001°09'713.2
2017-Nov-08 21:31N 50°36' W 001°02'613.0
2017-Nov-08 21:01N 50°42' W 000°59'713.1
2017-Nov-08 20:31N 50°47' W 001°06'2 3.5
2017-Nov-08 20:00N 50°49' W 001°06'0 0.0
2017-Nov-08 19:30N 50°49' W 001°06'  

Dump ship's entire track history